Time;durP1;ratioP1;P1;durP2;ratioP2;P2;SDS_P1;SDS_P2;PMS_P1;PMS_P2;Temp;Humidity;BMP_temperature;BMP_pressure;BME280_temperature;BME280_humidity;BME280_pressure;Samples;Min_cycle;Max_cycle;Signal;HPM_P1;HPM_P2
2022/08/17 00:01:54;;;;;;;8.43;7.20;;;17.10;93.50;;;;;;5084211;28;20471;-60
2022/08/17 00:04:21;;;;;;;8.43;7.63;;;17.10;93.50;;;;;;5086883;28;20491;-61
2022/08/17 00:06:47;;;;;;;8.93;7.20;;;17.00;93.80;;;;;;5087679;28;20444;-61
2022/08/17 00:09:13;;;;;;;8.13;7.10;;;17.00;94.40;;;;;;5082690;28;20501;-60
2022/08/17 00:11:41;;;;;;;8.73;7.73;;;17.00;94.40;;;;;;5081619;28;20432;-60
2022/08/17 00:14:11;;;;;;;9.63;7.63;;;16.90;94.50;;;;;;5072904;28;20233;-60
2022/08/17 00:16:42;;;;;;;8.50;6.93;;;16.90;94.70;;;;;;5083876;28;20463;-61
2022/08/17 00:19:14;;;;;;;9.70;7.17;;;16.90;94.60;;;;;;5083217;28;20431;-59
2022/08/17 00:21:43;;;;;;;10.17;7.77;;;16.90;94.90;;;;;;5088538;28;20404;-60
2022/08/17 00:24:08;;;;;;;10.53;7.13;;;16.90;94.80;;;;;;5076128;28;20444;-60
2022/08/17 00:26:34;;;;;;;8.90;6.83;;;16.80;94.60;;;;;;5086791;28;20483;-59
2022/08/17 00:29:01;;;;;;;8.70;7.17;;;16.80;95.00;;;;;;5080972;28;20203;-60
2022/08/17 00:31:26;;;;;;;11.13;7.40;;;16.70;95.50;;;;;;5080816;28;20185;-60
2022/08/17 00:33:52;;;;;;;8.00;7.20;;;16.70;95.90;;;;;;5080648;28;20452;-59
2022/08/17 00:36:18;;;;;;;7.93;7.00;;;16.70;96.60;;;;;;5083668;28;20187;-60
2022/08/17 00:38:44;;;;;;;10.10;7.30;;;16.70;96.70;;;;;;5086408;28;20190;-60
2022/08/17 00:41:19;;;;;;;8.40;6.87;;;16.70;96.80;;;;;;5087175;28;20201;-60
2022/08/17 00:43:49;;;;;;;8.40;7.60;;;16.60;96.50;;;;;;5071542;28;20243;-60
2022/08/17 00:46:20;;;;;;;10.10;7.30;;;16.60;97.00;;;;;;5082800;28;21036;-60
2022/08/17 00:48:47;;;;;;;13.17;7.37;;;16.60;97.00;;;;;;5086032;28;20983;-60
2022/08/17 00:51:33;;;;;;;10.90;7.30;;;16.60;97.00;;;;;;5081092;28;20428;-60
2022/08/17 00:54:08;;;;;;;9.53;7.30;;;16.60;97.50;;;;;;5081211;28;20432;-60
2022/08/17 00:56:41;;;;;;;12.77;7.80;;;16.50;97.70;;;;;;5085988;28;20403;-60
2022/08/17 00:59:09;;;;;;;10.70;7.50;;;16.50;97.70;;;;;;5083380;28;20432;-61
2022/08/17 01:01:36;;;;;;;8.63;6.87;;;16.50;97.70;;;;;;5073852;28;20467;-60
2022/08/17 01:04:03;;;;;;;9.83;7.77;;;16.50;97.80;;;;;;5074619;28;20463;-60
2022/08/17 01:06:30;;;;;;;10.00;7.23;;;16.50;98.10;;;;;;5078248;28;20515;-60
2022/08/17 01:08:58;;;;;;;8.90;7.40;;;16.40;98.20;;;;;;5081975;28;20436;-60
2022/08/17 01:11:25;;;;;;;11.90;8.20;;;16.40;98.50;;;;;;5077513;28;20428;-60
2022/08/17 01:13:50;;;;;;;7.67;6.43;;;16.30;98.70;;;;;;5088746;28;20444;-60
2022/08/17 01:16:21;;;;;;;11.93;8.00;;;16.30;99.10;;;;;;5087723;28;20885;-60
2022/08/17 01:18:50;;;;;;;8.73;7.67;;;16.30;99.40;;;;;;5076408;28;20269;-60
2022/08/17 01:21:23;;;;;;;10.60;7.90;;;16.20;99.70;;;;;;5080611;28;20437;-59
2022/08/17 01:23:49;;;;;;;11.23;7.73;;;16.20;99.90;;;;;;5068356;28;20441;-60
2022/08/17 01:26:15;;;;;;;8.00;7.20;;;16.20;99.90;;;;;;5079803;28;21065;-59
2022/08/17 01:28:41;;;;;;;11.27;7.50;;;16.20;99.90;;;;;;5084158;28;20178;-60
2022/08/17 01:31:08;;;;;;;10.87;7.80;;;16.20;99.90;;;;;;5086184;28;20404;-60
2022/08/17 01:33:34;;;;;;;8.17;7.13;;;16.10;99.90;;;;;;5077532;28;20186;-59
2022/08/17 01:36:00;;;;;;;8.20;7.40;;;16.10;99.90;;;;;;5079518;28;20435;-58
2022/08/17 01:38:30;;;;;;;9.33;8.20;;;16.10;99.90;;;;;;5080742;28;20580;-60
2022/08/17 01:41:00;;;;;;;10.93;7.77;;;16.10;99.90;;;;;;5087468;28;20186;-60
2022/08/17 01:43:34;;;;;;;9.23;7.67;;;16.10;99.90;;;;;;5078653;28;20432;-60
2022/08/17 01:46:01;;;;;;;8.33;7.53;;;16.10;99.90;;;;;;5081048;28;20413;-60
2022/08/17 01:48:35;;;;;;;7.40;6.50;;;16.10;99.90;;;;;;5072066;28;20436;-60
2022/08/17 01:51:01;;;;;;;10.83;7.30;;;16.10;99.90;;;;;;5086184;28;20459;-60
2022/08/17 01:53:32;;;;;;;9.17;7.70;;;16.00;99.90;;;;;;5080950;28;20459;-60
2022/08/17 01:56:10;;;;;;;9.10;7.60;;;16.00;99.90;;;;;;5084920;28;20424;-58
2022/08/17 01:58:37;;;;;;;8.50;7.60;;;16.00;99.90;;;;;;5088396;28;20462;-59
2022/08/17 02:01:04;;;;;;;8.60;7.77;;;16.00;99.90;;;;;;5086946;28;20414;-59
2022/08/17 02:03:33;;;;;;;10.53;8.20;;;16.00;99.90;;;;;;5075533;28;20435;-60
2022/08/17 02:05:59;;;;;;;10.30;8.03;;;16.00;99.90;;;;;;5091111;28;20494;-60
2022/08/17 02:08:26;;;;;;;14.07;8.67;;;16.00;99.90;;;;;;5086841;28;20419;-60
2022/08/17 02:10:52;;;;;;;10.67;8.37;;;16.10;99.90;;;;;;5078736;28;20500;-60
2022/08/17 02:13:18;;;;;;;8.17;7.37;;;16.10;99.90;;;;;;5089789;28;20428;-61
2022/08/17 02:15:44;;;;;;;12.20;8.00;;;16.00;99.90;;;;;;5090721;28;20951;-60
2022/08/17 02:18:11;;;;;;;11.20;8.23;;;16.00;99.90;;;;;;5081686;28;20452;-60
2022/08/17 02:20:37;;;;;;;8.63;7.73;;;16.10;99.90;;;;;;5076938;28;21182;-60
2022/08/17 02:23:07;;;;;;;8.47;7.60;;;16.10;99.90;;;;;;5089394;28;20415;-60
2022/08/17 02:25:34;;;;;;;9.10;7.80;;;16.20;99.90;;;;;;5085179;28;20443;-60
2022/08/17 02:28:00;;;;;;;13.70;7.87;;;16.20;99.90;;;;;;5081767;28;20798;-59
2022/08/17 02:30:25;;;;;;;8.07;7.13;;;16.20;99.90;;;;;;5080934;28;20510;-60
2022/08/17 02:32:52;;;;;;;14.13;7.70;;;16.20;99.90;;;;;;5090906;28;20220;-60
2022/08/17 02:35:18;;;;;;;11.10;7.33;;;16.30;99.90;;;;;;5086917;28;20220;-60
2022/08/17 02:37:43;;;;;;;8.03;7.30;;;16.30;99.90;;;;;;5088137;28;20499;-60
2022/08/17 02:40:09;;;;;;;9.90;7.43;;;16.40;99.90;;;;;;5088825;28;20173;-59
2022/08/17 02:42:38;;;;;;;8.13;7.33;;;16.40;99.90;;;;;;5081400;28;20182;-60
2022/08/17 02:45:09;;;;;;;11.70;7.70;;;16.40;99.90;;;;;;5082595;28;20471;-58
2022/08/17 02:47:35;;;;;;;9.47;7.60;;;16.50;99.90;;;;;;5090710;28;20507;-60
2022/08/17 02:50:02;;;;;;;8.53;7.67;;;16.50;99.90;;;;;;5082365;28;20538;-60
2022/08/17 02:52:33;;;;;;;9.97;7.60;;;16.50;99.80;;;;;;5089329;28;20220;-60
2022/08/17 02:54:59;;;;;;;11.20;7.60;;;16.50;99.10;;;;;;5083208;28;20448;-58
2022/08/17 02:57:24;;;;;;;8.70;7.77;;;16.40;99.00;;;;;;5087092;28;20666;-60
2022/08/17 02:59:50;;;;;;;9.60;7.80;;;16.40;99.30;;;;;;5089802;28;20170;-60
2022/08/17 03:02:16;;;;;;;8.47;7.60;;;16.40;99.40;;;;;;5082805;28;20661;-60
2022/08/17 03:04:41;;;;;;;8.10;7.27;;;16.40;99.90;;;;;;5085388;28;20190;-60
2022/08/17 03:07:07;;;;;;;10.07;8.03;;;16.40;99.90;;;;;;5088629;28;20178;-59
2022/08/17 03:09:33;;;;;;;13.30;7.43;;;16.50;99.90;;;;;;5087163;28;20665;-60
2022/08/17 03:12:05;;;;;;;7.70;7.00;;;16.50;99.90;;;;;;5080230;28;20701;-60
2022/08/17 03:14:31;;;;;;;7.50;6.70;;;16.50;99.90;;;;;;5087030;28;20457;-60
2022/08/17 03:16:57;;;;;;;8.47;7.53;;;16.50;99.90;;;;;;5072750;28;20457;-60
2022/08/17 03:19:23;;;;;;;9.13;7.70;;;16.50;99.90;;;;;;5077420;28;20433;-59
2022/08/17 03:21:49;;;;;;;8.67;7.43;;;16.50;99.90;;;;;;5085603;28;20440;-59
2022/08/17 03:24:14;;;;;;;8.80;7.90;;;16.50;99.70;;;;;;5088076;28;20194;-60
2022/08/17 03:26:40;;;;;;;10.20;7.90;;;16.50;99.70;;;;;;5088615;28;20638;-60
2022/08/17 03:29:05;;;;;;;9.83;7.97;;;16.50;99.70;;;;;;5084851;28;20202;-60
2022/08/17 03:31:31;;;;;;;13.40;7.80;;;16.40;99.60;;;;;;5081230;28;20174;-60
2022/08/17 03:33:57;;;;;;;11.70;7.90;;;16.40;99.70;;;;;;5085682;28;20186;-60
2022/08/17 03:36:22;;;;;;;12.20;7.70;;;16.40;99.90;;;;;;5089630;28;20614;-60
2022/08/17 03:38:48;;;;;;;11.90;8.30;;;16.40;99.90;;;;;;5078073;28;20567;-59
2022/08/17 03:41:14;;;;;;;8.53;7.70;;;16.40;99.90;;;;;;5082604;28;20570;-60
2022/08/17 03:43:39;;;;;;;9.00;8.07;;;16.40;99.90;;;;;;5082962;28;20206;-60
2022/08/17 03:57:07;;;;;;;10.83;8.13;;;16.20;99.90;;;;;;5087995;28;20509;-60
2022/08/17 03:59:34;;;;;;;11.40;8.63;;;16.20;99.90;;;;;;5083891;28;20492;-61
2022/08/17 04:02:06;;;;;;;11.20;8.60;;;16.20;99.90;;;;;;5084912;28;20452;-60
2022/08/17 04:04:32;;;;;;;10.20;8.77;;;16.20;99.90;;;;;;5076674;28;20561;-59
2022/08/17 04:06:58;;;;;;;10.00;8.13;;;16.20;99.90;;;;;;5088832;28;20447;-59
2022/08/17 04:09:23;;;;;;;11.90;8.57;;;16.30;99.90;;;;;;5079376;28;20464;-58
2022/08/17 04:11:50;;;;;;;8.70;7.80;;;16.30;99.90;;;;;;5078770;28;20219;-58
2022/08/17 04:14:16;;;;;;;10.23;8.90;;;16.30;99.90;;;;;;5087486;28;20860;-60
2022/08/17 04:16:42;;;;;;;8.80;7.90;;;16.40;99.90;;;;;;5077513;28;20189;-60
2022/08/17 04:19:07;;;;;;;8.30;7.37;;;16.40;99.90;;;;;;5082315;28;20190;-60
2022/08/17 04:21:33;;;;;;;9.23;8.30;;;16.40;99.90;;;;;;5078828;28;20208;-61
2022/08/17 04:24:00;;;;;;;9.43;7.57;;;16.40;99.90;;;;;;5085773;28;20198;-60
2022/08/17 04:26:27;;;;;;;10.17;8.30;;;16.40;99.90;;;;;;5080956;28;20235;-60
2022/08/17 04:28:52;;;;;;;8.20;7.40;;;16.40;99.90;;;;;;5081848;28;20759;-59
2022/08/17 04:31:18;;;;;;;11.80;8.80;;;16.40;99.90;;;;;;5084176;28;20410;-60
2022/08/17 04:33:44;;;;;;;9.37;8.27;;;16.40;99.90;;;;;;5079671;28;20268;-58
2022/08/17 04:36:13;;;;;;;10.30;7.80;;;16.40;99.90;;;;;;5084055;28;20281;-59
2022/08/17 04:38:41;;;;;;;9.93;8.20;;;16.30;99.90;;;;;;5086204;28;20507;-60
2022/08/17 04:43:54;;;;;;;9.47;8.40;;;16.30;99.90;;;;;;5083335;28;20493;-60
2022/08/17 04:46:23;;;;;;;16.37;8.83;;;16.30;99.90;;;;;;5084390;28;20481;-60
2022/08/17 04:48:51;;;;;;;13.73;8.33;;;16.30;99.90;;;;;;5069122;28;20484;-60
2022/08/17 04:51:18;;;;;;;10.97;7.93;;;16.30;99.90;;;;;;5085571;28;20488;-60
2022/08/17 04:53:47;;;;;;;9.63;8.30;;;16.30;99.90;;;;;;5086704;28;20562;-60
2022/08/17 04:56:15;;;;;;;10.50;9.23;;;16.30;99.90;;;;;;5087238;28;20943;-59
2022/08/17 04:58:42;;;;;;;10.83;8.83;;;16.30;99.90;;;;;;5086958;28;20463;-61
2022/08/17 05:01:07;;;;;;;9.47;8.47;;;16.20;99.90;;;;;;5075397;28;20439;-60
2022/08/17 05:03:34;;;;;;;12.43;9.33;;;16.30;99.90;;;;;;5085608;28;20569;-60
2022/08/17 05:06:00;;;;;;;13.03;9.80;;;16.30;99.90;;;;;;5085176;28;20232;-60
2022/08/17 05:08:25;;;;;;;10.07;8.97;;;16.30;99.90;;;;;;5082074;28;21029;-60
2022/08/17 05:10:51;;;;;;;10.07;8.47;;;16.30;99.90;;;;;;5079918;28;20246;-60
2022/08/17 05:13:20;;;;;;;9.80;8.80;;;16.30;99.90;;;;;;5087365;28;20177;-58
2022/08/17 05:15:48;;;;;;;9.87;8.80;;;16.30;99.90;;;;;;5084805;28;20200;-60
2022/08/17 05:18:15;;;;;;;13.73;8.80;;;16.40;99.90;;;;;;5076446;28;20891;-60
2022/08/17 05:20:41;;;;;;;9.50;8.50;;;16.40;99.90;;;;;;5081408;28;20431;-59
2022/08/17 05:23:10;;;;;;;12.00;9.20;;;16.40;99.90;;;;;;5087320;28;20511;-60
2022/08/17 05:25:41;;;;;;;10.87;8.27;;;16.50;99.90;;;;;;5083007;28;20218;-60
2022/08/17 05:28:09;;;;;;;10.50;8.77;;;16.50;99.90;;;;;;5085789;28;20955;-59
2022/08/17 05:30:36;;;;;;;10.03;9.00;;;16.70;99.90;;;;;;5084386;28;20439;-59
2022/08/17 05:33:05;;;;;;;9.77;8.70;;;16.80;99.90;;;;;;5090191;28;20499;-60
2022/08/17 05:35:34;;;;;;;10.93;8.60;;;16.90;99.90;;;;;;5086323;28;20546;-58
2022/08/17 05:38:00;;;;;;;11.43;9.30;;;16.90;99.90;;;;;;5092531;28;20435;-60
2022/08/17 05:40:27;;;;;;;11.73;8.07;;;16.90;99.90;;;;;;5087985;28;20440;-60
2022/08/17 05:43:07;;;;;;;10.23;8.17;;;17.00;99.90;;;;;;5085928;28;20181;-60
2022/08/17 05:45:35;;;;;;;13.63;8.67;;;17.20;99.90;;;;;;5090560;28;20504;-58
2022/08/17 05:48:00;;;;;;;12.10;9.43;;;17.30;99.90;;;;;;5083635;28;20551;-60
2022/08/17 05:50:32;;;;;;;11.27;8.30;;;17.40;99.90;;;;;;5077638;28;21003;-60
2022/08/17 05:53:26;;;;;;;13.90;8.60;;;17.60;99.50;;;;;;5086162;28;20382;-60
2022/08/17 05:56:19;;;;;;;10.20;8.53;;;17.70;99.50;;;;;;5075010;28;20459;-59
2022/08/17 05:59:20;;;;;;;13.63;8.20;;;17.80;99.20;;;;;;5080760;28;20516;-60
2022/08/17 06:02:27;;;;;;;11.00;8.20;;;18.00;98.70;;;;;;5080924;28;20440;-60
2022/08/17 06:05:14;;;;;;;8.93;7.40;;;18.30;97.50;;;;;;5070191;28;20448;-59
2022/08/17 06:08:01;;;;;;;12.97;8.43;;;18.40;95.40;;;;;;5083214;28;20499;-59
2022/08/17 06:10:47;;;;;;;11.27;7.83;;;18.50;95.20;;;;;;5093120;28;20419;-60
2022/08/17 06:13:45;;;;;;;9.03;6.93;;;18.60;94.20;;;;;;5093644;28;20427;-60
2022/08/17 06:16:15;;;;;;;14.83;7.90;;;18.70;93.90;;;;;;5084220;28;20939;-60
2022/08/17 06:18:52;;;;;;;13.57;8.80;;;18.80;93.40;;;;;;5083092;28;20520;-61
2022/08/17 06:21:20;;;;;;;13.97;7.90;;;18.80;93.60;;;;;;5089735;28;20432;-60
2022/08/17 06:24:15;;;;;;;9.00;7.77;;;18.80;94.40;;;;;;5084116;28;20432;-60
2022/08/17 06:26:44;;;;;;;9.70;7.90;;;18.80;96.10;;;;;;5084037;28;20427;-60
2022/08/17 06:29:25;;;;;;;9.13;7.57;;;18.90;95.30;;;;;;5080305;28;20428;-59
2022/08/17 06:31:51;;;;;;;12.87;8.47;;;18.90;93.90;;;;;;5081976;28;20518;-59
2022/08/17 06:34:18;;;;;;;9.53;6.93;;;19.00;95.50;;;;;;5078572;28;20867;-61
2022/08/17 06:36:56;;;;;;;9.53;8.13;;;19.10;95.30;;;;;;5092034;28;20213;-60
2022/08/17 06:39:49;;;;;;;11.47;8.23;;;19.20;95.20;;;;;;5093153;28;20728;-60
2022/08/17 06:42:43;;;;;;;11.73;8.20;;;19.30;95.60;;;;;;5077041;28;20506;-61
2022/08/17 06:45:33;;;;;;;9.90;8.03;;;19.40;95.20;;;;;;5074181;28;20468;-61
2022/08/17 06:48:11;;;;;;;10.63;7.47;;;19.60;93.70;;;;;;5087019;28;20436;-60
2022/08/17 06:50:49;;;;;;;9.80;7.40;;;19.70;90.90;;;;;;5076573;28;20436;-60
2022/08/17 06:53:27;;;;;;;12.73;7.37;;;19.90;90.10;;;;;;5085364;28;20437;-60
2022/08/17 06:56:07;;;;;;;8.20;7.40;;;20.10;87.40;;;;;;5078971;28;20526;-60
2022/08/17 06:58:34;;;;;;;13.00;7.40;;;20.20;85.20;;;;;;5075906;28;20460;-59
2022/08/17 07:01:26;;;;;;;10.07;7.23;;;20.30;82.70;;;;;;5071196;28;20480;-60
2022/08/17 07:04:03;;;;;;;8.93;6.77;;;20.40;82.70;;;;;;5082998;28;20463;-60
2022/08/17 07:06:37;;;;;;;10.93;6.60;;;20.50;82.50;;;;;;5087432;28;20519;-59
2022/08/17 07:09:32;;;;;;;8.03;6.20;;;20.60;80.50;;;;;;5077427;28;20467;-60
2022/08/17 07:12:04;;;;;;;9.07;6.47;;;20.70;78.90;;;;;;5083855;28;20427;-59
2022/08/17 07:14:35;;;;;;;7.30;5.87;;;20.70;76.60;;;;;;5087366;28;20451;-59
2022/08/17 07:17:06;;;;;;;9.20;7.13;;;20.80;72.90;;;;;;5072428;28;20468;-59
2022/08/17 07:19:35;;;;;;;10.80;6.00;;;20.90;70.60;;;;;;5078878;28;20482;-60
2022/08/17 07:22:35;;;;;;;7.40;6.00;;;20.90;68.60;;;;;;5083515;28;20460;-60
2022/08/17 07:25:08;;;;;;;7.47;5.83;;;21.00;67.00;;;;;;5084877;28;20448;-60
2022/08/17 07:27:41;;;;;;;6.33;4.73;;;21.00;65.50;;;;;;5089537;28;20815;-59
2022/08/17 07:30:24;;;;;;;5.07;4.40;;;21.10;62.80;;;;;;5081975;28;20442;-60
2022/08/17 07:32:58;;;;;;;6.80;4.53;;;21.20;62.20;;;;;;5077160;28;20483;-60
2022/08/17 07:35:29;;;;;;;5.60;4.87;;;21.20;61.90;;;;;;5076651;28;20589;-61
2022/08/17 07:38:15;;;;;;;5.37;4.87;;;21.30;61.40;;;;;;5091119;28;20455;-59
2022/08/17 07:40:56;;;;;;;5.70;4.77;;;21.30;60.30;;;;;;5076960;28;20428;-59
2022/08/17 07:43:25;;;;;;;7.13;4.20;;;21.30;59.80;;;;;;5080086;28;20420;-61
2022/08/17 07:48:51;;;;;;;4.83;4.40;;;21.30;59.40;;;;;;5086370;28;20438;-60
2022/08/17 07:51:25;;;;;;;4.90;4.40;;;21.30;59.30;;;;;;5085027;28;20431;-60
2022/08/17 07:53:56;;;;;;;5.83;5.03;;;21.40;59.40;;;;;;5073651;28;20447;-60
2022/08/17 07:56:35;;;;;;;11.17;5.00;;;21.50;59.80;;;;;;5087664;28;20437;-59
2022/08/17 07:59:14;;;;;;;8.33;5.17;;;21.50;59.90;;;;;;5086098;28;20943;-58
2022/08/17 08:01:43;;;;;;;5.07;4.53;;;21.60;59.90;;;;;;5088666;28;20450;-59
2022/08/17 08:04:38;;;;;;;6.03;4.83;;;21.70;60.10;;;;;;5081147;28;20471;-60
2022/08/17 08:07:10;;;;;;;5.10;4.50;;;21.70;60.60;;;;;;5072484;28;20470;-61
2022/08/17 08:09:58;;;;;;;6.40;4.80;;;21.80;60.80;;;;;;5077924;28;20428;-60
2022/08/17 08:12:32;;;;;;;5.73;4.40;;;21.80;59.90;;;;;;5084200;28;20427;-61
2022/08/17 08:15:24;;;;;;;6.83;4.93;;;21.90;59.80;;;;;;5084038;28;21164;-60
2022/08/17 08:18:33;;;;;;;4.80;4.30;;;22.10;59.90;;;;;;5078599;28;20828;-59
2022/08/17 08:21:09;;;;;;;4.53;4.03;;;22.20;59.70;;;;;;5083788;28;20406;-60
2022/08/17 08:23:53;;;;;;;6.20;4.43;;;22.30;58.60;;;;;;5087525;28;20466;-60
2022/08/17 08:26:35;;;;;;;5.57;4.27;;;22.40;58.40;;;;;;5085824;28;20428;-60
2022/08/17 08:29:07;;;;;;;5.73;3.90;;;22.40;58.40;;;;;;5073931;28;20417;-61
2022/08/17 08:31:42;;;;;;;6.50;4.30;;;22.60;58.40;;;;;;5076083;28;20469;-60
2022/08/17 08:34:25;;;;;;;4.07;3.30;;;22.80;58.20;;;;;;5072017;28;20872;-60
2022/08/17 08:36:57;;;;;;;5.37;3.50;;;23.00;57.30;;;;;;5069938;28;21056;-60
2022/08/17 08:39:27;;;;;;;3.37;3.07;;;23.20;56.50;;;;;;5075154;28;20436;-60
2022/08/17 08:42:09;;;;;;;4.60;3.53;;;23.30;56.10;;;;;;5082423;28;20424;-60
2022/08/17 08:44:49;;;;;;;4.43;4.03;;;23.40;55.80;;;;;;5085507;28;20455;-60
2022/08/17 08:47:39;;;;;;;3.50;3.20;;;23.50;55.10;;;;;;5080089;28;20522;-61
2022/08/17 08:50:36;;;;;;;3.73;3.23;;;23.70;54.90;;;;;;5074639;28;20432;-60
2022/08/17 08:53:08;;;;;;;3.80;3.40;;;23.90;54.70;;;;;;5077660;28;20513;-60
2022/08/17 08:55:46;;;;;;;6.00;3.93;;;24.10;54.20;;;;;;5075845;28;20456;-61
2022/08/17 08:58:42;;;;;;;3.87;3.17;;;24.30;54.20;;;;;;5077930;28;20455;-60
2022/08/17 09:01:21;;;;;;;3.20;2.90;;;24.50;53.80;;;;;;5085131;28;20474;-61
2022/08/17 09:04:02;;;;;;;3.40;3.20;;;24.60;53.00;;;;;;5083189;28;21046;-61
2022/08/17 09:06:43;;;;;;;4.73;3.67;;;24.70;52.70;;;;;;5084346;28;20423;-61
2022/08/17 09:09:08;;;;;;;4.23;3.83;;;24.70;51.30;;;;;;5086676;28;20420;-60
2022/08/17 09:11:47;;;;;;;7.43;3.80;;;24.60;50.10;;;;;;5085357;28;20916;-60
2022/08/17 09:14:18;;;;;;;6.27;3.73;;;24.50;50.50;;;;;;5072971;28;20196;-59
2022/08/17 09:16:43;;;;;;;7.90;4.07;;;24.40;51.20;;;;;;5076238;28;20435;-61
2022/08/17 09:19:17;;;;;;;5.07;3.40;;;24.50;51.50;;;;;;5081891;28;20420;-59
2022/08/17 09:22:21;;;;;;;6.40;4.20;;;24.50;50.90;;;;;;5089589;28;20173;-60
2022/08/17 09:24:55;;;;;;;5.37;3.47;;;24.40;51.00;;;;;;5043661;28;20448;-59
2022/08/17 09:27:30;;;;;;;6.70;3.43;;;24.40;51.10;;;;;;5044959;28;20431;-58
2022/08/17 09:30:01;;;;;;;4.50;4.00;;;24.30;51.10;;;;;;5050501;28;20530;-60
2022/08/17 09:32:39;;;;;;;3.40;3.20;;;24.30;50.80;;;;;;5089172;28;20577;-60
2022/08/17 09:35:23;;;;;;;3.60;3.30;;;24.50;50.90;;;;;;5079802;28;20450;-60
2022/08/17 09:38:10;;;;;;;5.20;4.13;;;24.70;50.70;;;;;;5075986;28;20504;-61
2022/08/17 09:41:11;;;;;;;3.90;3.50;;;25.10;49.70;;;;;;5085457;28;20581;-62
2022/08/17 09:44:04;;;;;;;3.90;3.50;;;25.40;49.10;;;;;;5081825;28;20464;-62
2022/08/17 09:46:43;;;;;;;6.80;3.43;;;25.60;48.80;;;;;;5085195;28;20485;-61
2022/08/17 09:49:18;;;;;;;4.53;3.50;;;25.70;48.10;;;;;;5074740;28;20415;-61
2022/08/17 09:51:51;;;;;;;4.30;3.90;;;25.70;47.90;;;;;;5088230;28;20446;-61
2022/08/17 09:54:29;;;;;;;4.23;3.37;;;25.80;46.80;;;;;;5084802;28;20834;-60
2022/08/17 09:57:21;;;;;;;3.57;3.20;;;25.90;46.50;;;;;;5072592;28;20473;-60
2022/08/17 10:00:17;;;;;;;4.30;3.90;;;26.00;46.20;;;;;;5081514;28;20419;-60
2022/08/17 10:03:04;;;;;;;3.73;3.33;;;26.20;45.90;;;;;;5078407;28;20443;-61
2022/08/17 10:05:48;;;;;;;4.17;3.00;;;26.30;45.10;;;;;;5074815;28;20450;-61
2022/08/17 10:08:21;;;;;;;5.40;3.80;;;26.40;44.60;;;;;;5080136;28;20481;-61
2022/08/17 10:11:06;;;;;;;4.50;3.67;;;26.40;44.50;;;;;;5086284;28;20488;-61
2022/08/17 10:13:55;;;;;;;4.10;3.70;;;26.40;44.80;;;;;;5075111;28;20431;-61
2022/08/17 10:16:36;;;;;;;4.10;3.60;;;26.50;45.00;;;;;;5074800;28;20423;-60
2022/08/17 10:19:14;;;;;;;4.80;3.40;;;26.50;44.30;;;;;;5079340;28;20447;-60
2022/08/17 10:27:30;;;;;;;6.67;3.60;;;26.90;43.70;;;;;;5084020;28;20458;-60
2022/08/17 10:30:03;;;;;;;3.40;3.10;;;26.80;43.30;;;;;;5071753;28;20515;-61
2022/08/17 10:32:43;;;;;;;6.07;3.40;;;26.80;43.40;;;;;;5075137;28;20436;-60
2022/08/17 10:35:28;;;;;;;3.40;3.10;;;26.90;44.10;;;;;;5075295;28;20962;-61
2022/08/17 10:37:58;;;;;;;5.40;3.63;;;27.20;43.50;;;;;;5073351;28;21003;-61
2022/08/17 10:40:32;;;;;;;3.80;3.50;;;27.40;42.90;;;;;;5081278;28;20634;-60
2022/08/17 10:43:20;;;;;;;3.40;3.10;;;27.50;42.60;;;;;;5082350;28;20518;-60
2022/08/17 10:46:03;;;;;;;3.63;3.33;;;27.70;42.80;;;;;;5075990;28;20208;-62
2022/08/17 10:48:37;;;;;;;3.70;3.40;;;27.90;42.70;;;;;;5074006;28;20264;-61
2022/08/17 10:51:28;;;;;;;6.33;3.63;;;28.10;41.70;;;;;;5083320;28;20859;-61
2022/08/17 10:53:56;;;;;;;7.20;3.13;;;28.40;42.30;;;;;;5074671;28;20239;-62
2022/08/17 10:56:23;;;;;;;3.40;3.10;;;28.60;42.30;;;;;;5076268;28;20246;-61
2022/08/17 10:58:53;;;;;;;3.30;3.00;;;28.90;41.60;;;;;;5086306;28;20202;-62
2022/08/17 11:01:40;;;;;;;9.30;3.40;;;29.10;40.90;;;;;;5071846;28;20186;-61
2022/08/17 11:04:28;;;;;;;6.32;4.10;;;29.10;40.80;;;;;;5051278;28;20217;-62
2022/08/17 11:07:13;;;;;;;3.90;3.50;;;29.00;40.30;;;;;;5075661;28;20173;-63
2022/08/17 11:10:12;;;;;;;3.85;3.40;;;28.70;39.80;;;;;;5080987;28;20204;-57
2022/08/17 11:13:00;;;;;;;3.43;3.10;;;28.40;40.80;;;;;;5080896;28;20201;-59
2022/08/17 11:15:32;;;;;;;5.80;3.78;;;28.00;41.20;;;;;;5074594;28;20202;-61
2022/08/17 11:18:27;;;;;;;3.77;3.43;;;27.70;40.40;;;;;;5073292;28;20200;-60
2022/08/17 11:21:02;;;;;;;4.67;3.80;;;27.30;41.10;;;;;;5080970;28;20169;-60
2022/08/17 11:23:43;;;;;;;4.57;3.90;;;27.10;42.30;;;;;;5081139;28;20264;-61
2022/08/17 11:26:45;;;;;;;6.60;3.90;;;26.70;43.70;;;;;;5083656;28;20177;-61
2022/08/17 11:29:22;;;;;;;6.20;3.83;;;26.50;45.10;;;;;;5068531;28;20188;-62
2022/08/17 11:32:07;;;;;;;5.13;3.77;;;26.70;46.10;;;;;;5076723;28;20173;-61
2022/08/17 11:34:34;;;;;;;3.97;3.67;;;27.10;45.50;;;;;;5082541;28;20249;-64
2022/08/17 11:37:38;;;;;;;4.60;3.87;;;27.50;45.50;;;;;;5085409;28;20690;-61
2022/08/17 11:40:39;;;;;;;3.90;3.60;;;27.90;43.90;;;;;;5062278;28;20185;-62
2022/08/17 11:43:06;;;;;;;8.73;4.63;;;28.00;43.20;;;;;;5071871;28;20165;-61
2022/08/17 11:45:34;;;;;;;3.50;3.20;;;27.90;43.90;;;;;;5073907;28;20673;-63
2022/08/17 11:51:34;;;;;;;5.43;3.90;;;28.00;43.90;;;;;;5075534;28;20189;-63
2022/08/17 11:54:15;;;;;;;17.47;5.87;;;28.10;43.70;;;;;;5077571;28;20206;-63
2022/08/17 11:56:49;;;;;;;4.53;4.13;;;28.40;44.60;;;;;;5077664;28;20181;-62
2022/08/17 11:59:37;;;;;;;4.27;3.87;;;28.60;43.50;;;;;;5078356;28;20216;-61
2022/08/17 12:02:33;;;;;;;4.33;3.70;;;28.90;42.30;;;;;;5077014;28;20181;-62
2022/08/17 12:05:21;;;;;;;3.80;3.40;;;29.20;42.30;;;;;;5071576;28;20201;-63
2022/08/17 12:07:47;;;;;;;3.63;3.20;;;29.50;42.00;;;;;;5086146;28;20177;-62
2022/08/17 12:10:16;;;;;;;4.25;3.30;;;29.80;41.40;;;;;;5080880;28;20223;-63
2022/08/17 12:12:44;;;;;;;6.95;3.80;;;30.00;40.40;;;;;;5081090;28;20178;-63
2022/08/17 12:15:24;;;;;;;4.03;3.67;;;30.10;40.20;;;;;;5084579;28;20215;-63
2022/08/17 12:17:52;;;;;;;5.97;3.70;;;30.30;40.00;;;;;;5074670;28;20208;-63
2022/08/17 12:20:37;;;;;;;5.53;3.97;;;30.50;39.50;;;;;;5073603;28;20169;-63
2022/08/17 12:23:24;;;;;;;6.38;4.05;;;30.60;39.80;;;;;;5073469;28;20180;-62
2022/08/17 12:25:55;;;;;;;3.95;3.58;;;30.70;39.10;;;;;;5067821;28;20194;-63
2022/08/17 12:28:29;;;;;;;9.18;3.70;;;30.70;38.60;;;;;;5071306;28;20186;-63
2022/08/17 12:31:01;;;;;;;4.65;3.85;;;30.60;39.00;;;;;;5077249;28;20227;-63
2022/08/17 12:33:27;;;;;;;5.55;3.83;;;30.30;39.10;;;;;;5070833;28;20276;-62
2022/08/17 12:36:14;;;;;;;4.10;3.70;;;30.20;39.50;;;;;;5079938;28;20758;-62
2022/08/17 12:38:49;;;;;;;3.53;3.08;;;30.30;38.40;;;;;;5074622;28;20770;-62
2022/08/17 12:41:39;;;;;;;5.30;3.63;;;30.50;38.20;;;;;;5073364;28;20669;-63
2022/08/17 12:44:18;;;;;;;3.97;3.58;;;30.60;37.90;;;;;;5071460;28;20198;-61
2022/08/17 12:47:17;;;;;;;9.30;4.03;;;30.70;37.80;;;;;;5082362;28;20175;-62
2022/08/17 12:49:46;;;;;;;4.40;3.45;;;30.60;37.80;;;;;;5084648;28;20709;-62
2022/08/17 12:52:23;;;;;;;5.45;3.90;;;30.50;37.40;;;;;;5081869;28;20173;-62
2022/08/17 12:55:00;;;;;;;5.90;3.50;;;30.40;37.30;;;;;;5077994;28;20669;-63
2022/08/17 12:57:33;;;;;;;4.28;3.88;;;30.30;37.80;;;;;;5068212;28;20199;-62
2022/08/17 13:00:11;;;;;;;4.57;3.90;;;30.40;37.70;;;;;;5077934;28;20774;-62
2022/08/17 13:02:39;;;;;;;5.32;3.67;;;30.30;37.60;;;;;;5074204;28;20186;-64
2022/08/17 13:05:07;;;;;;;4.60;3.88;;;30.40;38.00;;;;;;5070978;28;20567;-62
2022/08/17 13:07:41;;;;;;;4.15;3.58;;;30.60;38.10;;;;;;5070419;28;20698;-63
2022/08/17 13:10:12;;;;;;;4.68;4.07;;;30.80;37.90;;;;;;5079838;28;20275;-65
2022/08/17 13:12:38;;;;;;;3.70;3.40;;;31.20;36.90;;;;;;5081855;28;20292;-63
2022/08/17 13:15:04;;;;;;;4.97;4.32;;;31.50;36.60;;;;;;5076846;28;20191;-63
2022/08/17 13:17:34;;;;;;;4.28;3.90;;;31.50;35.90;;;;;;5074103;28;20330;-63
2022/08/17 13:20:01;;;;;;;4.03;3.72;;;31.50;36.10;;;;;;5081727;28;20203;-62
2022/08/17 13:22:31;;;;;;;3.92;3.50;;;31.40;36.20;;;;;;5077606;28;20561;-63
2022/08/17 13:25:04;;;;;;;5.47;3.83;;;31.00;36.20;;;;;;5070633;28;20211;-62
2022/08/17 13:27:31;;;;;;;5.70;3.70;;;30.60;36.60;;;;;;5077782;28;20582;-63
2022/08/17 13:30:06;;;;;;;4.53;3.85;;;30.40;37.30;;;;;;5079700;28;20294;-63
2022/08/17 13:32:39;;;;;;;4.68;3.40;;;30.50;37.60;;;;;;5073023;28;20185;-62
2022/08/17 13:35:37;;;;;;;4.10;3.70;;;30.70;37.30;;;;;;5070705;28;20208;-61
2022/08/17 13:38:03;;;;;;;4.57;4.00;;;30.80;36.80;;;;;;5070576;28;20222;-64
2022/08/17 13:40:40;;;;;;;4.95;3.88;;;30.90;36.60;;;;;;5072569;28;20558;-63
2022/08/17 13:43:06;;;;;;;5.63;3.60;;;31.10;36.80;;;;;;5080876;28;20645;-63
2022/08/17 13:45:45;;;;;;;4.00;3.60;;;31.20;36.30;;;;;;5070905;28;20221;-62